SMRA40 UAOL 210900
AAXX 21091
40001 42970 01702 10165 20030 40175 53001=
40016 42970 0//// 10150 20093 40/// 54000=
40022 42965 50000 10205 20099 40152 54000 80002 333 85070=
40025 42960 62202 10218 20072 40157 50000 80002 333 86070=
40030 42970 40000 10198 20060 40193 58004 80001 333 84070=
40066 42970 20000 10220 20065 4//// 5//// 80001 333 82070=
40080 42970 30000 10194 20028 39462 40162 54000 80001 333 83070=
40095 38932 42699 61401 10167 20036 40173 58027 38598 42698 50902 10172 2008=
40153 429// /1004 10150 20035 39099 48510 52004 333 70000=
40183 439// /0902 10174 20040 39234 48513 52005 333 70000=
40190 439// ///// 10201 20109 39828 40152 57002 333 70000=
40401 42960 02706 10265 21040 39431 40100 333 58006=
40417 42660 50414 10270 20000 30123 40137 81430 333 59010 81640 84359=
40550 35/70 /1402 10272 20069 40155 58010 333 55310 01770 10000 23060 30661 41248 51876 63721 55407 42398 90069 90401 91005 91115 91205 91303=
40551 35/70 /1305 10254 20038 40156 58011 333 90069 90400 91009 91115 91211 91307=
40553 36/70 /1106 10251 20103 40154 58008 333 55310 90401 91011 91113 91211 91307=
40570 35/67 /0810 10244 20044 40144 58017 333 55310 90069 90400 91017 91119 91213 91311=
40573 35/69 /0809 10240 20037 40149 58014 333 90069 90400 91015 91117 91211 91309=
40580 36/// /0403 10265 20043 40159 58007 333 553// 01458 10000 22890 30690 41279 52021 63580 55407 42200 90400 91009 91111 91205 91303=
40581 36/// /0505 10230 20063 40167 58006 333 90400 91009 91111 91205 91303=
40582 32960 41004 10245 20048 40154 58006 84030 333 55310 01442 10000 22685 30741 41301 51802 63425 55407 41944 84360 90400 91011 91113 91205 91303=
40585 36/// /0504 10200 20137 333 90400 91005 91107 91205 91303=
40586 36/// /0409 10258 20036 40157 58008 333 90401 91015 91115 91209 91307=
40587 36/// /0508 10248 20042 40155 58009 333 553// 01409 10000 22995 30955 41256 51884 63950 55407 42040 90400 91013 91115 91209 91307=
40588 36/// /0406 10227 20122 40156 58003 333 55310 90401 91011 91113 91209 91307=
40590 36/// /0609 10244 20041 40152 58012 333 90401 91023 91123 91211 91307=
40592 35/70 /0606 10245 20090 40146 58011 333 55308 01366 10000 22406 30593 41296 51740 62999 55407 41813 90069 90400 91013 91115 91207 91305=
40594 36/// /0508 10224 20123 40152 58008 333 90401 91013 91115 91207 91305=
40596 36/// /0207 10207 20156 333 90400 91009 91109 91209 91307=
40602 42960 00000 10142 20052=
40603 42560 10000 10172 20062 40187 50002 81100 333 81830=
40605 42960 03202 10166 20024 40183 58006=
40606 42960 02902 10145 20052 40197 57002=
40607 42960 00000 10155 21015=
40608 42960 00000 10170 20075 40187 58004=
40611 42560 12502 10126 20044 40197 51007 81100 333 81825=
40616 42960 00901 10167 20045 40184 52009=
40620 42960 00000 10143 20005=
40621 42960 00701 10192 20058 40191 54001=
40622 42960 00802 10165 20011 40139 57002=
40623 42960 00000 10140 20003 40201 50000=
40629 42960 02701 10180 20105 40217 54000=
40631 42960 00000 10204 20086 40185 58002=
40632 42960 02802 10190 20058 40169 58001=
40633 42960 03402 10190 20043 40182 51000=
40634 42960 23602 10188 20040 40188 51005 80001 333 820//=
40637 42960 01501 10204 20146 40154 56003=
40638 42960 03202 10198 20067 40126 50001=
40642 42960 00702 10188 20055 40171 57002=
40646 42960 33502 10200 20053 40182 58004 83030 333 83360=
40650 42960 13202 10201 20027 40179 58002 81030 333 81360=
40655 42960 20103 10195 20013 40144 53001 82030 333 82360=
40656 42960 23203 10206 20026 40178 58005 80001 333 820//=
40657 42960 23503 10206 20033 40172 54001 80001 333 820//=
40658 42960 23003 10175 20035 40164 58004 80001 333 820//=
40660 42960 03203 10200 20053 40169 58005=
40662 42960 13502 10206 20039 40165 58001 80002 333 810//=
40664 42960 13103 10206 20039 40168 50001 80001 333 810//=
40665 42960 22701 10220 20062 40171 58002 80001 333 820//=
40666 42960 11302 10208 20039 40180 54000 80001 333 810//=
40670 42960 40000 10210 20013 40172 51001 80002 333 840//=
40672 42960 43402 10208 20030 40185 53002 80006 333 840//=
40674 42960 63403 10216 20024 40174 58005 80001 333 860//=
40675 42960 22703 10216 20050 40162 58002 80002 333 820//=
40676 42960 12703 10236 20013 40175 58003 80001 333 810//=
40680 42960 03002 10224 20079 40157 58003=
40689 42960 00000 10268 20057 40162 57007=
40690 42960 00503 10245 20039 40167 58003=
40691 42960 21202 10258 20052 40180 58006 81031 333 81360=
40701 42664 10000 10163 21013 38593 40155 58004 81500 333 81640 555 10084 29030 66666 00080 10052 20048 30046 50062 90076=
40703 42660 21502 10118 21010 38926 40183 58004 82200 333 82835 555 10063 29041 66666 00100 10086 20070 30076 50090 90098=
40704 41456 80000 10048 20010 38636 40223 52006 76066 8272/ 333 82710 88557 555 10032 29076 66666 00036 10032 20036 30048 50060 90082=
40706 41558 70606 10056 20024 38668 40221 53003 78021 85372 333 83630 82935 86358 555 10042 29080 66666 00076 10062 20062 30064 50074 90086=
40708 41540 80000 10025 20021 38680 40217 51003 77177 8862/ 333 85720 85635 88459 555 10023 29097 66666 00052 10048 20046 30052 50064 90076=
40710 42662 72404 10012 21029 38323 40236 53001 84970 333 83635 81936 86459 555 11004 29074 66666 00038 10026 20028 30038 50054 90074=
40712 42660 40305 10100 21014 38679 40178 56003 84300 333 83935 82640 555 10052 29045 66666 00084 10064 20054 30058 50060 90066=
40713 42560 52702 10090 20013 38666 40185 58005 85100 333 85832 555 10056 29058 66666 00094 10069 20066 30073 50084 90100=
40716 42662 52102 10078 20013 38926 40211 58005 83102 333 83840 555 10050 29064 66666 00116 10082 20066 30072 50096 90108=
40718 42560 60503 10127 20088 30259 40230 50000 86506 333 86630 86267 555 10107 29077 66666 00124 10122 20120 30124 50136 90144=
40719 42560 79901 10122 20057 30238 40227 56004 84306 333 82920 83625 87265 555 10092 29065 66666 00128 10132 20106 30110 50126 90130=
40721 41556 80000 10068 20053 39682 40236 57008 71022 8572/ 333 82720 83630 88457 555 10061 29090 66666 00102 10092 20088 30096 50108 90142=
40723 42460 73101 10064 20017 38975 40212 58002 86670 333 82715 85625 87357 555 10044 29072 66666 00070 10068 20064 30064 50082 90098=
40726 42660 40904 10094 21013 38662 40194 54000 84100 333 84835 555 10049 29047 66666 00114 10060 20056 30060 50072 90086=
40727 42665 50000 10076 21010 38483 40204 57004 85200 333 85835 555 10040 29054 66666 00108 10073 20055 30063 50068 90078=
40729 42565 53203 10061 21046 38334 40190 58004 84302 333 81930 83830 555 10020 29046 66666 00100 10070 20042 30048 50062 90076 77777 00019 10025 20/// 30024 50019 70/// 99///=
40731 42566 63301 10086 21020 38721 40182 57009 86300 333 83930 83840 555 10043 29047 66666 00106 10090 20078 30082 50096 90100=
40732 42560 70803 10116 20079 30242 40218 54000 87300 333 82922 86625 555 10098 29078 66666 00134 10120 20106 30110 50124 90132 77777 00/// 10/// 20/// 30/// 50/// 70/// 99///=
40734 42565 40904 10124 20074 30247 40221 58003 84300 333 81920 83625 555 10100 29072 66666 00140 10114 20114 30146 50158 90160 77777 00/// 10/// 20/// 30/// 50/// 70/// 99///=
40736 42560 70803 10120 20070 30248 40223 58005 83170 333 83820 87359 555 10096 29071 66666 00154 10126 20112 30120 50132 90142 77777 00/// 10/// 20/// 30042 50038 70/// 99///=
40737 41558 70402 10128 20109 30202 40220 58015 71022 83520 333 83630 87457 555 10118 29088 66666 00162 10124 20128 30132 50132 90134 77777 00044 10042 20/// 30058 50053 70/// 99///=
40738 41460 70403 10113 20078 30240 40242 58007 70252 86870 333 83815 83620 86358 555 10096 29080 66666 00128 10120 20110 30118 50126 90138=
40739 41562 70303 10058 20031 38683 40189 58003 72562 84310 333 82930 84635 86459 555 10046 29083 66666 00096 10090 20082 30092 50100 90111=
40740 42560 71206 10083 20040 38719 40181 57007 85720 333 82720 83635 85457 555 10063 29074 66666 00075 10058 20060 30061 50059 90062=
40741 42560 71005 10133 20074 39880 40215 57043 85720 333 85725 87459 555 10104 29067 66666 00172 10161 20153 30156 50160 90156=
40743 42665 63603 10120 20056 39058 40168 58006 82570 333 82635 85460 555 10089 29065 66666 00138 10118 20104 30110 50122 90140=
40745 41456 71202 10078 20048 39045 40195 58004 72165 85310 333 84720 81930 57459 555 10064 29081 66666 00104 10102 20100 30106 50113 90128=
40747 42684 30102 10097 21066 38630 40176 56010 83100 333 83840 555 10036 29031 66666 00132 10096 20086 30092 50098 90100=
40754 42665 52903 10102 21046 38816 40167 58006 84232 333 81835 83640 555 10045 29035=
40757 42565 53404 10120 21005 38887 40158 58003 85300 333 82930 84635 555 10066 29042 66666 00175 10135 20124 30132 50135 90140=
40762 42662 60602 10121 20018 38541 40149 55006 84402 333 84640 555 10073 29049 66666 00120 10088 20076 30075 50088 90098=
40763 42665 20905 10145 20021 38896 40143 58007 82500 333 82640 555 10087 29043 66666 00179 10126 20109 30116 50125 90138=
40766 42660 11002 10117 21082 38686 40170 58007 81700 333 81735 555 10044 29024 66666 00134 10090 20082 30088 50094 90084=
40768 42660 40101 10074 21026 38241 40173 57007 84400 333 84640 555 10033 29049 66666 00137 10080 20052 30054 50068 90070=
40769 41659 43301 10082 21031 38279 40157 58009 70511 84201 333 81835 83640 555 10036 29045 66666 00154 10106 20076 30072 50082 90094=
40780 42960 02503 10133 21074 38672 40177 51001 555 10054 29023 66666 00124 10100 20088 30090 50098 90102=
40782 42668 22805 10149 21057 38855 40151 56008 82100 333 82845 555 10067 29024 66666 00116 10104 20094 30080 50104 90114=
40783 42970 32007 10078 21084 37958 40144 58005 80001 333 83069 555 10019 29031 66666 00119 10083 20061 30064 50054 90076=
40785 42960 43302 10146 21004 39070 40151 57018 80002 333 84070 555 10080 29036 66666 00206 10164 20136 30134 50148 90156=
40789 42665 11802 10164 20030 39186 40140 58012 81500 333 81640 555 10100 29041 66666 00202 10168 20144 30146 50164 90182=
40791 42570 13005 10204 20008 39316 40119 58009 81100 333 81830 555 10112 29027 66666 00220 10202 20170 30164 50170 90182=
40792 42668 42805 10161 20020 38684 40107 57010 82402 333 82635 84070 555 10093 29039 66666 00188 10164 20128 30124 50136 90144=
40794 42960 01903 10226 20063 30059 40157 58006 555 10143 29035 66666 00224 10190 20168 30174 50194 90194=
40798 42660 22507 10104 21088 37944 40149 57010 82101 333 82835 555 10032 29025 66666 00103 10063 20052 30061 50068 90075=
40800 42960 02702 10140 21034 38435 40129 56015 555 10066 29030 66666 00188 10130 20104 30112 50126 90142=
40809 42560 62705 10174 21045 38465 40098 58010 85341 333 81930 84635 555 10080 29022 66666 00184 10180 20120 30118 50124 90134=
40811 42960 00502 10250 20044 30123 40149 58003 555 10147 29026 66666 00278 10230 20196 30196 50204 90214=
40812 42660 23103 10220 20057 39771 40142 57006 82200 333 82835 555 10137 29035 66666 00176 10162 20160 30164 50176 90190=
40818 42970 22305 10127 21117 37962 40116 57012 80002 333 82070 555 10039 29017 66666 00182 10129 20099 30093 50101 90112=
40821 42675 12802 10158 21037 38772 40140 57019 81100 555 10076=
40827 42670 11204 10209 21052 38799 40100 57016 81100 555 10097=
40829 42960 02003 10270 20014 39552 40108 57031 555 10144 29019 66666 00286 10224 20190 30194 50196 90192=
40831 42960 00502 10255 20019 30148 40158 57006 555 10142 29022 66666 00320 10250 20212 30214 50220 90218=
40833 42960 03207 10273 20038 30119 40151 58008 555 10155 29022 66666 00244 10240 20238 30241 50248 90246=
40835 42960 00000 10219 20021 39321 40146 57010 555 10123 29027 66666 00144 10156 20152 30148 50166 90160=
40836 42665 23104 10122 21094 38185 40152 58006 81105 333 81840 555 10042 29021 66666 00142 10126 20084 30082 50094 90096=
40841 42970 42905 10176 21186 38227 40103 57011 80005 333 84270 555 10058 29007 66666 00138 10164 20168 30150 50146 90150=
40845 42960 63102 10216 20132 30145 40150 57007 80006 333 86270 555 10168 29059 66666 00232 10210 20204 30200 5//// 90208=
40848 41658 72204 10170 21075 38512 40119 57007 70522 82406 333 82640 87269 555 10072 29018 66666 00152 10142 20118 30124 50132 90138 77777 00/// 10013 20010 30014 50008 70/// 99///=
40851 42660 62004 10170 21045 38254 40104 58005 83510 333 83640 85460 555 10077 29023 66666 00244 10161 20115 30130 50154 90181=
40853 42665 52706 10132 21088 37738 40113 58007 81130 333 81840 84360 555 10046 29021 66666 00182 10138 20114 30112 50116 90124=
40854 42660 72803 10272 21060 38910 40068 57011 81106 333 81840 87268 555 10124 29011 66666 00340 10222 20220 30214 50220 90218=
40856 42662 22406 10222 21005 38610 40092 57015 82100 333 82840 555 10113 29022 66666 00250 10202 20166 30166 50166 90162=
40858 42660 80000 10210 20119 30134 40142 58009 8151/ 333 81640 88460 555 10159 29056 66666 00228 10214 20210 30216 50222 90222=
40859 42960 61502 10186 21041 38696 40086 58007 80006 333 86270 555 10088 29021 66666 00200 10140 20120 30126 50136 90149=
40872 42960 32002 10228 20138 30145 40150 52009 82501 333 82635 83070 555 10176 29057 66666 00260 10232 20206 30208 50216 90224=
40875 41950 70602 10247 20177 30121 40132 57011 70522 80007 333 87269 555 10203 29065 66666 00286 10248 20224 30228 50240 90252=
40877 42960 32105 10241 20131 39544 40074 58018 80002 333 83070 555 10176 29050 66666 00282 10242 20206 30204 50216 90224=
40878 42965 02205 10243 21022 38820 40116 57019 555 10119 29017 66666 00236 10209 20200 30203 50208 90205=
40879 42962 02903 10257 20068 39458 40118 58013 555 10155 29030 66666 00302 10286 20254 30248 50254 90256=
40882 41956 62304 10242 20199 30105 40140 58001 70521 80006 333 86267 555 10214 29077 66666 00252 10222 20202 30210 50214 90242=
40883 41940 02005 10239 20172 30113 40136 58002 70500 555 10197=
40889 41657 62103 10236 20179 30144 40149 58004 70521 81136 333 81835 83359 85269 555 10200 29070 66666 00266 10256 20232 30254 50261 90270=
40890 42960 22404 10230 20199 30124 40131 58006 82050 333 82360 555 10210 29083 66666 00286 10274 20248 30254 50258 90258=
40893 41957 02705 10256 20186 30118 40124 58008 70500 555 10211 29066 66666 00302 10277 20256 30257 50269 90260=
40898 42960 02303 10242 20184 30124 40133 57010 222// 00230 20601 555 10205 29070 66666 00282 10264 20260 30270 50268 90272=
40911 42662 62502 10134 20066 39751 40195 56008 83540 333 83635 84360 90101=
40913 42966 33402 10162 21014 39671 40196 57013 82101 333 82840 83070 90089=
40930 42960 51603 11060 21099 36752 4//// 51004 82430 333 82640 84360 91073=
40938 42762 43503 10173 21004 39036 40178 57017 83430 333 83650 84360 90091=
40948 42660 52301 10112 20040 38184 40160 55004 85100 333 85835 90078=
40954 42970 01801 10210 20063 39479 40154 55006 333 90136=
41032 42960 22104 10304 20200 39756 40099 82030 333 58013 82360=
41169 42964 50206 10239 20114 30137 40141 80001 333 59004 85072=
41200 47960 03503 10295 20061 30106 40140 700// 333 10298 20250 5////=
41241 32960 60213 10250 20107 30098 40133 80008 90845 333 58007 86269=
41242 36/// /0207 10255 20152 30126 40152 333 0E018 55300 25022 58017=
41245 36/// /0805 10242 20162 30095 40132 333 0E017 55310 21607 58011=
41247 36/// /0507 10272 20126 30087 40121 333 0E019 58007=
41248 36/// /2605 10311 21092 39395 40069 333 0E017 58012=
41249 26/// /3106 10303 21066 39413 40076 333 0E017 58005 70000=
41250 26/// /0000 10330 21087 39826 40106 333 0E019 55300 21949 59002 70000=
41251 32960 31905 10206 21026 38042 48081 80001 333 58024 83075=
41252 36/// /2703 10327 21045 39752 40102 333 0E137 58005=
41253 26/// /3405 10297 20063 39758 40109 333 0E019 58010 70000=
41255 36/// /2005 10315 20037 39602 40094 333 0E025 58015=
41257 36/// /0006 10318 20019 39634 40094 333 0E019 58010=
41260 36/// /1008 10249 20165 30128 40131 333 0E020 58012=
41261 36/// /2206 10300 21075 39490 40083 333 0E015 58000=
41263 36/// /1204 10311 20040 39544 40088 333 0E023 58018=
41264 33/// 19905 10311 20091 39753 40118 333 58012=
41265 31959 01706 10326 21004 39536 40096 70500 333 58013=
41266 36/// /0507 10276 20120 30102 40123 333 0E018 58008=
41267 36/70 /0205 10258 20206 30118 40131 333 0E/// 58010=
41269 36/// /2906 10297 20043 39622 40100 333 0E020 58012=
41270 36/66 /1309 10259 20201 30085 40135 333 0E022 58012=
41271 26/// /0510 10268 20128 30098 40125 333 0E021 58008 70000=
41272 26/// /0208 10271 20140 30084 40129 333 0E025 58006 70000=
41274 36/// /0708 10267 20147 30101 40123 333 0E019 58006=
41275 36/// /2704 10331 21078 39968 40131 333 0E016 58008=
41276 36/// /3103 10338 21066 39978 40120 333 0E016 58004=
41277 36/// /0805 10304 20065 39724 40106 333 0E017 58011=
41278 36/// /0505 10256 20122 30073 40130 333 0E022 55310 23490 58015=
41279 26/// /0307 10283 20127 39955 40118 333 0E019 55300 23028 58009 70000=
41280 36/// /0407 10299 20114 310000 40117 333 0E019 55300 22175 58010=
41281 36/// /0308 10283 20122 30109 40130 333 0E022 55300 23113 58011=
41282 36/// /2006 10289 21024 39206 47788 333 0E019 58018=
41284 36/// /1704 10319 20059 39549 40087 333 0E018 58011=
41285 36/// /0207 10288 20119 39896 40117 333 0E021 55302 22076 58012=
41286 26/// /0304 10297 20086 39930 48072 333 0E019 58009 70000=
41287 36/// /1306 10320 20118 30081 40120 333 0E020 58013=
41289 36/// /1409 10260 20208 30103 40120 333 0E022 58012=
41290 26/// /2506 10231 20163 30110 40134 333 0E018 55310 21689 58008 70000=
41291 32982 10708 10299 20048 39995 40126 90845 333 58006=
41292 36/// /1607 10323 20088 39690 40097 333 0E022 58010=
41293 36/// /1509 10318 20107 39776 40110 333 0E031 58010=
41295 36/// /0903 10331 20008 39941 40114 333 0E019 58000=
41297 36/// /2109 10296 20099 39391 40050 333 0E020 58010=
41298 36/// /0208 10327 20069 39715 40098 333 0E023 58009=
41301 36/// /0101 10320 20218 39956 40117 333 0E015 55300 25022 58001=
41302 36/// /1107 10310 20029 30111 40118 333 0E018 55310 22213 58006=
41303 36/// /1609 10315 20144 39905 40113 333 0E022 58008=
41306 36/// /1903 10238 20128 39257 47908 333 0E018 58006=
41307 36/// /1909 10284 20206 30105 40133 333 0E023 58006=
41308 36/// /1109 10319 21493 39967 40114 333 0E017 59007=
41309 36/// /2109 10281 20217 30121 40132 333 0E021 58006=
41310 36/// /1305 10282 20219 30123 40130 333 0E020 58005=
41311 36/// /1508 10346 20009 39530 40070 333 0E018 59019=
41315 36/// /1619 10264 20028 39153 42790 333 0E/// 59002=
41318 36/// /1510 10319 20127 30021 40122 333 0E022 58004=
41397 80128 10270 20257 40090 54000 70222 887// 22223 0//// 2//// 399// 4///=
41497 50310 10275 20203 40139 57016 7//11 84464 22233 00206 20101 30000 8022=
41498 31217 10259 20231 40145 50013 7//// 83100 22274 0//// 2//// 30000 8023=
41529 22697 33102 10245 20089 39785 40158 81500 333 56909 58019 60007 81640 82070=
41568 22697 33110 10235 20081 40145 81430 333 56990 58030 60007 81840=
41630 21996 03104 10255 20115 40152 70500 333 58033 60007=
41696 22697 62302 10160 20004 48532 86600 333 56900 58034 60007 86640=
42028 32596 32301 10102 20018 37882 82210 333 58042=
42031 32596 72702 10110 20038 38400 84520 333 58040=
42043 31495 70000 10072 21011 38459 70392 83370 333 58030=
42046 21596 82301 10080 20020 38158 76062 8472/ 333 58042 6992/=
42048 32696 53203 10160 20040 38401 83501 333 58013=
42054 32696 20000 10232 20076 39210 82100 333 58028=
42066 32495 42302 10084 21022 84800 333=
42079 21595 70000 10224 20088 39165 48521 76061 86820 333 58029 6990/ 83832 83634 85458=
42105 32596 43205 10288 20055 40122 82430 333 58036=
42180 31796 53201 10298 20111 39802 40107 70521 83031 333 58040=
42184 31995 00000 10316 20135 40106 70500 333 58043=
42308 31496 40506 10276 20139 40108 70511 84300 333 58006 82618 83825 81930=
42372 31996 21408 10342 20223 40085 70500 80001 333 58000 82070=
42377 32996 22703 10322 20198 40095 80001 333 58003 82070=
42423 32596 50503 10252 20172 40098 83430 333 58020 82620 85360=
42474 31995 00000 10356 20197 40095 70500 333 59002=
42512 31596 23205 10252 20090 48497 70500 82500 333 58004 82620=
42712 32596 11805 10356 20097 40058 81400 333 59002=
42782 32996 22701 10316 20194 4//// 82030 333 58/// 82360=
42784 32996 01803 10314 20199 40094 333 58016=
42806 32997 01401 10322 20239 40097 333 58002=
42947 32996 02203 10360 20158 4//// 333 58///=
43176 32597 21806 10342 20190 30082 40110 81402 333 58014=
43266 32597 22702 10310 20208 30080 40109 82500 333 58006=
43331 32997 21602 10334 20216 30066 40108 80001 333 58003=
43475 22470 10906 10310 20241 30091 40095 81900 333 58003 60007 81818 81919=
43588 12465 21106 10306 20254 30116 40117 60001 82201 333 58001 82818=
44203 32699 23008 11041 21166 38441 40319 57009 82101 333 91208=
44207 32699 20205 11046 21168 38339 40309 57007 82100 333 91206=
44210 32999 11201 10011 21181 38570 40302 56011 80001 333 91203=
44212 32999 20202 11069 21130 39215 40394 57008 80004 333 91202=
44213 32999 00000 11075 21150 38867 40396 57003 333 91202=
44214 32998 00000 10019 21228 38314 40284 57009 333 91202=
44215 32998 02302 10003 21190 38456 40312 57007 333 91203=
44216 32999 01202 10012 21167 39061 40326 57012 333 91203=
44217 32998 00000 11029 21191 37879 40330 57005 333 91203=
44218 32999 01003 10015 21169 38661 40311 57006 333 91204=
44219 32999 02704 11008 21189 38676 40328 57007 333 91204=
44221 32999 02603 11063 21144 38651 40375 57011 333 91205=
44224 32999 00000 11085 21143 38107 40396 58002 333 91201=
44225 32699 22506 11058 21164 38310 40356 57006 82100 333 91207=
44229 31999 22508 11081 21184 37944 40347 57006 73632 80008 333 91210=
44230 32699 23204 10005 21193 38811 40279 57013 82100 333 91204=
44231 32699 42906 10009 21174 38741 40263 57018 83101 333 91208=
44232 32699 62706 10025 21122 39111 40227 57019 84542 333 91208=
44237 32699 73208 11016 21183 38504 40277 57010 82141 333 91209=
44239 32999 73205 11002 21194 38809 40248 56010 84078 333 91110 91207=
44241 32699 63202 10015 21169 39275 40255 57016 82170 333 91202=
44242 32999 50802 10013 21169 39337 40251 57018 84075 333 91203=
44243 32699 73203 11004 21133 39437 40273 57010 83210 333 91205=
44254 32598 63104 11032 21173 39030 40240 56010 84304 333 91204=
44256 32699 63304 11027 21114 39351 40221 57006 84580 333 91112 91212=
44257 32598 63206 11030 21197 38974 40249 56011 84343 333 91209=
44259 32597 73006 11003 21183 39303 40216 56013 85264 333 91207=
44263 32998 03203 11003 21212 38079 40309 57006 333 91107 91204=
44265 32999 01702 10058 21180 38877 40265 57008 333 91202=
44266 32699 50208 11058 21185 37800 40349 53001 85800 333 91112 91209=
44272 32999 02402 11041 21178 38257 40331 56005 333 91204=
44275 32999 03306 11058 21224 37742 40321 52001 333 91206=
44277 32699 62509 11070 21189 37837 40364 58005 82103 333 91209=
44282 32699 23104 11046 21169 38317 40312 57007 81101 333 91206=
44284 32699 33105 11038 21223 37864 40290 57005 83200 333 91112 91210=
44285 32999 03201 11039 21138 38348 40288 57003 333 91201=
44286 32698 22707 11021 21123 38661 40274 57014 81140 333 91209=
44287 32599 52604 11041 21143 38133 40297 57010 85500 333 91207=
44288 32899 33003 11034 21196 38185 40296 57007 83040 333 91204=
44291 32599 63207 11025 21166 38744 40266 57015 86800 333 91112 91208=
44292 32699 53303 11022 21167 38709 40268 56016 85800 333 91206=
44294 32698 33006 11044 21170 38573 40277 57010 83030 333 91210=
44298 32699 23206 11035 21171 38730 40274 57011 82100 333 91206=
44302 32599 63306 11016 21182 39108 40234 57013 85304 333 91208=
44304 32599 73306 11011 21202 38994 40239 57013 86304 333 91208=
44305 32599 83206 11013 21185 39049 40231 57012 82108 333 91207=
44313 32599 43606 11011 21172 39375 40220 56002 82180 333 91206=
44314 32698 63207 11014 21164 39152 40242 57010 84280 333 91207=
44317 32999 62703 11036 21157 38946 40245 57012 86030 333 91205=
44325 32999 02705 10061 21194 38865 40240 57016 333 91206=
44329 32699 62805 11035 21219 37780 40299 56006 81171 333 91207=
44336 32999 02505 11018 21149 38722 40298 57015 333 91205=
44338 32899 21603 11038 21113 38507 40311 57012 82030 333 91203=
44341 32599 12705 11043 21162 38630 40300 56010 81100 333 91205=
44347 32999 12604 11011 21158 38743 40291 57012 81040 333 91204=
44348 32999 23108 11044 21157 38726 40302 57004 80004 333 91208=
44352 32699 53207 11012 21133 38921 40218 56013 85200 333 91208=
44354 32999 23404 10007 21203 39129 40260 57013 80004 333 91205=
44358 32599 43104 10015 21185 39091 40259 57010 81108 333 91204=
44373 32999 23505 11006 21164 38562 40291 57002 80001 333 91206=
44374 32999 20902 10014 21225 38276 40255 57011 82040 333 91203=
44385 32999 10103 10003 21174 38948 40285 57009 80004 333 91204=
44386 32999 23206 10003 21179 39071 40280 57008 80001 333 91206=
44406 42560 52703 10298 20095 39471 40100 83402 333 58021=
44409 42558 31602 10332 20079 39877 40075 83100 333 58010=
44418 42962 42706 10340 20099 39913 40091 8//// 333 58002=
44429 42565 32703 10305 20020 39355 40104 82201 333 58013=
47003 11258 80000 10033 20018 30019 40023 53013 69907 76166 8802/=
47005 32460 63205 11079 21138 38471 52048 84501=
47008 11970 80502 10034 20011 39967 40018 53028 69907 70262 83051=
47014 11565 82304 11012 21071 39759 40165 58073 69907 72277 885//=
47016 11770 82706 11031 21067 39231 40072 52064 69907 77077 8802/=
47020 11565 83204 11008 21038 39768 40129 52044 69907 77077 8802/=
47022 32470 83208 11033 21086 38666 53028 87502=
47025 31539 80501 10058 20046 39975 40004 53021 71022 885//=
47028 32667 63606 10022 21036 30068 40158 53035 86500=
47031 31570 43213 11031 21074 38813 52033 73133 84400=
47035 32970 03604 10028 21083 30167 40176 52036=
47037 32968 23204 10031 21033 39944 40067 52025 82030=
47039 11563 83204 10028 20002 39941 40132 52053 69907 70262 85430=
47041 31970 23208 10075 20013 30020 40047 52049 70030 80007=
47046 32569 32307 10120 21036 39973 49985 53028 82500=
47050 32565 23208 10052 21071 30070 40103 52026 82100=
47052 32565 63206 10038 21014 39772 40108 52035 86500=
47055 32970 22902 10078 21007 39997 40041 53025 82030=
47058 32760 83206 10053 21014 30083 40128 52028 82032=
47060 32965 03210 10039 21019 30080 40138 52018=
47061 32980 22308 10101 21007 39994 40035 52024 82030=
47065 32560 23210 10046 21007 30059 40124 52029 82500=
47067 32550 73203 10050 21019 3//// 4//// 5//// 87500=
47068 32560 83205 10036 21038 30113 40148 52029 81502=
47069 32560 23205 10047 21037 30027 40126 52024 82500=
47070 32568 62707 10046 21024 30043 40131 52036 86500=
47075 32580 62706 10032 21022 5//// 86400=
47090 36970 63205 10119 21038 30015 40037 53041=
47093 36970 53207 10084 21069 39979 40095 52040 80001=
47095 36662 52905 10045 21009 39926 40116 52039=
47098 36965 53210 10052 21008 39984 40126 52045=
47099 36967 53406 10046 21014 30092 40130 52037=
47102 32569 33433 10023 21024 30093 40138 52020 83500=
47137 36674 92910 10096 21008 39981 40097 52021=
47145 36561 92709 10057 30027 40127 52030=
47150 36561 93403 10047 21001 30125 40137 52021=
47154 36670 92905 10116 20040 30032 40091 52018=
47157 36970 92509 10099 20020 39817 40086 52022=
47169 31459 83430 10059 20033 30047 40141 52007 71022 8652/=
47171 36460 93409 10048 20039 30061 40147 52025=
47172 36465 93408 10053 20006 30076 40143 52025=
47173 36565 92506 10067 20003 39969 40130 52023=
47174 36963 93411 10077 20023 39910 40109 52023=
47175 369// /3619 10023 20018 39552 40130 50009=
47177 32568 72708 10051 21003 30103 40135 52022 81502=
47188 36465 93411 10097 20052 30104 40129 52036=
48030 32256 42202 10217 20111 84900 333 56500=
48051 32559 23104 10348 20182 82200 333 56900=
48052 32960 00000 10410 20278 333=
48072 32960 02705 10315 20248 333=
48085 32958 03205 10318 20215 40098 333 58007=
48101 32962 02703 10357 20195 333=
48302 31950 20000 10262 20090 38469 40042 57012 70400 80005 333 58030=
48304 31957 00000 10355 20108 39603 40043 57032 70500 333 58005=
48307 31558 22903 10375 20249 39685 40046 57031 70500 82100 333 59003=
48324 31558 11809 10392 20092 39838 40046 57037 70500 81100 333 59006=
48333 32960 00000 10376 20168 39758 40045 57034 333 59005=
48334 31958 01105 10376 20099 39702 40043 57033 70500 333 59001=
48350 31657 23202 10373 20187 39752 40038 57029 70500 82201 333 59007=
48355 31550 32503 10380 20195 39837 40046 57026 70500 82201 333 59017=
48358 31550 60000 10342 20214 39883 40052 57031 70592 82836 333 59018=
48360 31559 22503 10390 20191 39790 40037 57029 70500 82475 333 59013=
48372 32960 02406 10410 20121 30002 40057 57034 333 59008=
48373 31958 20000 10370 20208 39993 40053 57038 70500 80005 333 58002=
48374 31550 40000 10380 20168 39894 40052 57033 70500 82505 333 59016=
48382 32560 60000 10392 20205 39881 40048 57029 82206 333 59009=
48384 31557 32701 10388 20186 39855 40037 57028 70500 83205 333 59006=
48385 31956 02207 10350 20085 39589 40087 57010 70500 333 58029=
48386 31956 73204 10377 20198 30020 40058 57033 70522 80006 333 59004=
48387 31556 22307 10308 20087 39137 40059 57026 70500 81501 333 59001=
48390 32560 52502 10380 20204 39894 40047 57031 82206 333 59006=
48401 31557 33104 10370 20189 39961 40064 57036 70500 83205 333 59007=
48402 31559 10000 10373 20216 30044 40063 57033 70500 81205 333 59002=
48404 31558 60506 10369 20197 39875 40045 56029 70522 83206 333 59002=
48408 32562 70000 10387 20195 39911 40054 58030 82406 333 59013=
48409 31558 20000 10385 20180 39911 40052 57031 70500 82101 333 59007=
48410 31558 30805 10376 20201 30032 40061 57037 70511 81105 333 59001=
48415 32560 32503 10370 20241 30050 40061 57035 81245 333 59009=
48419 31658 42704 10381 20253 30055 40063 57033 70511 82205 333 59010=
48420 32460 42112 10312 20266 30066 40071 57027 81905 333 59007=
48427 31959 60000 10370 20212 30052 40060 57034 70522 80006 333 59003=
48429 31558 52211 10335 20238 30065 40072 57029 70511 82946 333 59010=
48433 32560 31806 10394 20204 39893 40051 57033 83500 333 59012=
48434 31456 40000 10386 20199 39837 40047 57032 70500 83205 333 59007=
48435 32960 12408 10347 20191 39635 40057 57026 80001 333 59015=
48436 31458 61103 10382 20181 39847 40045 57034 70522 83306 333 59006=
48437 31558 22906 10372 20194 39867 40068 57033 70500 82200 333 59008=
48438 32560 21613 10315 20248 30067 40071 57028 81505 333 59005=
48439 32561 20000 10383 20228 30044 40058 56033 81205 333 59006=
48440 31559 21502 10381 20215 30008 40055 56033 70500 82100 333 59006=
48451 32560 11104 10370 20210 30051 40062 57035 81900 333 59009=
48453 32560 51807 10337 20253 30072 40074 57026 82206 333 59005=
48458 31560 83303 10330 20245 30013 40091 57045 71722 8597/ 333 58001=
48464 32960 01506 10370 20243 30063 40075 57026 333 59014=
48474 32560 60604 10350 20210 39948 40067 57039 81206 333 59008=
48479 32562 22106 10316 20242 30026 40077 57025 82132 333 59007=
48481 32560 22105 10320 20233 30057 40084 57020 82101 333 58001=
48520 31559 31806 10346 20244 30056 40071 57029 70500 82205 333 59015=
48554 32962 20904 10342 20239 30080 40084 57024 80005 333 58000=
48555 31558 40304 10348 20228 30054 40095 57027 70500 81105 333 59002=
48556 32560 20402 10370 20189 30055 40071 57035 81105 333 58000=
48557 32562 30000 10360 20213 30043 40077 57029 82201 333 58001=
48560 32562 10803 10323 20240 30070 40083 57029 81100 333 58001=
48571 32562 30607 10333 20210 30069 40079 57024 82101 333 59001=
48574 32563 20511 10359 20184 30051 40079 57019 81202 333 58008=
48581 32560 30000 10345 20207 30039 40079 57029 83201 333 59004=
48650 41457 70506 10260 20251 30067 40086 71598 83948 333 81917 83364 86277=
48803 32970 01601 10332 20219 39916 40023 56036 333 59024=
48806 32970 03203 10322 20078 39306 40038 57024 333 58000=
48808 32970 01801 10325 20200 39757 40026 57025 333 59021=
48823 32498 81403 10266 20233 30054 40057 56024 888// 333 59017 86894 88696=
48825 32497 20903 10304 20236 30038 40047 57029 82100 333 59020 82894=
48826 32560 71602 10255 20246 39926 40059 56026 878// 333 59018 85895 87697=
48830 32565 22302 10291 20216 39750 40043 56027 82100 333 59020 82895=
48839 31995 51406 10257 20230 39998 40062 57031 71022 80008 333 59018 85299=
48840 32798 41103 10271 20242 30043 40049 57026 84500 333 59020 84697=
48845 32998 70201 10276 20247 30038 40045 57023 80008 333 59022 87299=
48848 32598 70703 10290 20233 30046 40054 56025 81208 333 59018 81895 87299=
48852 32998 70701 10331 20223 30046 40056 56025 80008 333 59016 87299=
48855 32770 71103 10288 20235 30063 40071 57018 81508 333 59017 81697 87299=
48870 32970 71607 10282 20252 30080 40087 56023 80008 333 59014 87299=
48877 32570 61404 10302 20241 30080 40085 56020 82208 333 59011 82895 86299=
48887 32572 61406 10300 20250 30083 40089 56018 82208 333 59004 82895 86299=
48894 32598 21404 10312 20234 30077 40081 57025 81201 333 59008 81895=
48914 32598 73202 10330 20230 30082 40084 56031 82908 333 59004 81995 82995 87299=
48917 32598 62005 10303 20255 30087 40093 57024 82208 333 59003 82895 86299=
48918 32470 71103 10300 20242 30093 40104 57014 82208 333 59007 81894 87299=
48920 32598 60202 10311 20245 30080 40083 57018 83208 333 59005 83895 86299=
48921 31458 12703 10270 20088 38574 48073 57023 70544 81100 333 59008=
48924 31557 22203 10338 20143 39444 40040 57028 70400 82100 333 58010=
48925 31959 02704 10325 20084 39928 40023 57021 70444 333 58002=
48926 31550 12703 10354 20126 39603 40051 57030 70444 81100 333 59001=
48927 32460 12704 10320 20139 39079 48587 57030 81100 333 58002=
48928 32460 33204 10300 20099 39003 48505 57021 83100 333 59007=
48930 32465 20000 10368 20170 39708 40039 57036 82100 333 58000=
48935 32460 32702 10306 20076 38878 48393 57025 83200 333 59010=
48938 31557 21803 10370 20169 39726 40042 57047 70544 82100 333 59012=
48940 31959 02402 10376 20209 39850 40041 57036 70500 333 58010=
48941 31959 03404 10360 20203 3//// 4//// 5//// 70544 333 5////=
48945 31559 12702 10375 20176 39876 40045 57031 70544 81800 333 59013=
48946 31550 63201 10363 20250 39898 40057 57017 70544 83810 333 59017=
48947 31459 42202 10375 20220 39898 40054 57021 70544 83230 333 59016=
48952 31559 42204 10375 20206 39923 40107 57018 70544 83800 333 59009=
48955 31550 32202 10378 20188 39947 40062 57034 70544 83100 333 59011=
48957 32560 52201 10377 20223 39933 40036 57032 83232 333 59015=



SMUS40 KWBC 210900
AAXX 21094
40100 43970 02506 10184 20139 30161 40177 51003 333 58///=
40101 42958 20000 10196 20031 39097 48518 58005 80005 909// 333 82070=
40102 40100 43970 02506 10184 20139 30161 40177 51003 333 44214 32998 00000 =
40103 42960 33006 10192 20133 40167 52005 80001 333 83070 92427=
40179 42460 10502 10200 20114 30118 40155 57007 81600 333 70000=
40180 42960 01101 10200 20109 30113 40162 57004 80000 333 70000=
40199 41956 00403 10243 20115 30116 40140 57004 705// 333 70000=
40260 42960 31009 10190 20020 39392 40157 54003 80001 333 83070=
40265 41950 51710 10196 20032 39382 40166 54001 70500 80001 333 85070=
40270 41956 20804 10174 20044 39264 40149 54000 70500 80001 333 82070=
40272 41957 01112 10192 20019 39330 40153 54000 70500=
40310 42960 40000 10184 20064 38924 48485 54001 80002 333 84070=
40340 41957 03512 10216 20112 40134 54000 70500=
40356 42960 01118 10196 20040 39188 48500 333 58003 555 04410 50149=
40357 42960 50910 10176 20010 39529 40161 85030 333 58019 85360=
40360 42960 01314 10200 20020 39565 40145 333 58003=
40361 42960 01010 10216 20010 39388 40144 333 58017=
40362 42960 00811 10269 20030 39638 40130 333 58019=
40373 42960 31210 10248 20080 39731 40141 83030 333 59001 83360=
40375 42960 31803 10220 21010 39251 40101 80002 333 59009 83070=
40394 42960 40610 10220 20060 39010 48499 80002 333 58017 84070 555 04410 50109=
40400 42960 02707 10250 20180 30090 40118 333 58006=
40405 41655 43308 10250 20090 39373 40091 70635 84400 333 59020 84640=
40420 42960 40808 10260 20030 39925 40130 83071 333 59013 83360=
40430 42960 02705 10288 20090 39381 40077 333 58000=
40435 41959 32314 10280 21020 39077 40112 81132 333 59007 81840 82360 82070=
40437 42660 71611 10240 21010 39433 40121 84520 333 59017 84640 87458=
40439 42960 02903 10300 20010 30088 40106 333 58006=
41024 42660 12506 10282 20190 30104 40123 81500 333 58003 81640=
41036 42960 32013 10268 20050 38544 48494 83030 333 58007 83358 555 04410 50066=
41055 42960 01814 10264 20120 38348 48491 333 59001 555 04410 50074=
41061 42960 01112 10290 20050 39404 40088 333 59013=
41084 42960 13309 10306 20120 38825 48490 80002 333 59011 81070 555 04410 50050=
41112 42960 22015 10231 20040 37948 48507 82010 333 59001 82457 555 04410 50111=
41114 42960 02218 10242 20050 37980 48503 333 58004 555 04410 50101=
41128 42960 00905 10295 20030 38782 48495 333 59013 555 04410 50070=
41136 42960 02110 10320 20010 39292 40077 333 59014=
41140 42560 12108 10322 20210 30106 40112 81100 333 58007 81830=
41150 42970 40210 10247 20111 40141 84030 333 59012 84364=
41184 42960 49902 10280 20089 40137 80004 333 59001 84070=
41194 42960 53104 10282 20097 30126 40132 83031 333 59005 83363 83075=
41196 42960 42102 10284 20078 30094 40135 84030 333 59002 84364=
41198 42960 40908 10252 20140 30083 40137 84030 333 58012 84360=
41216 42960 30604 10280 20081 30129 40133 82031 333 59011 82365=
41217 42960 49903 10287 20102 30099 40127 84030 333 59013 84362=
41218 42960 23506 10306 21056 39828 40124 82030 333 59011 82365=
41240 36/// /0000 10234 20152 30125 40139 333 0E/// 58011=
41244 26/// /3206 10304 21123 39699 40103 333 0E020 59002 70000=
41246 31558 30811 10254 20174 30125 40127 70500 82430 333 58006 82630=
41254 36/// /1806 10204 21013 38060 48517 333 0E012 58024=
41256 32960 00508 10267 20138 30116 40133 90845 333 58012=
41258 36/// /0204 10251 20162 30125 40128 333 0E/// 55310 22217 58015=
41262 36/// /3103 10322 20017 39923 40113 333 0E016 58004=
41268 32960 00512 1//// 2//// 3//// 4//// 90916 333 5////=
41288 31958 01310 10268 20202 30112 40133 70500 333 5////=
41304 36/// /1416 10337 20039 39807 40103 333 0E020 59012=
41312 36/// /1809 10275 20199 30094 40133 333 0E/// 58006=
41314 32960 01715 10336 20003 39629 40112 333 59014=
41316 31959 01810 10288 20196 30108 40139 70600 333 58005 55407 55408 55507 55508=
41398 20610 10140 20122 40240 57000 702// 82110 22242 20602 305// 40803 8013=
41480 40582 32960 41004 10245 20048 40154 58006 84030 333 55310 01442 10000 =
41506 22697 61802 10185 20024 38531 48530 83520 333 56990 58053 60007 83640 84460=
41508 22697 52702 10181 21027 48562 83220 333 56990 58051 60007 83835 82460=
41523 22997 00000 10210 20044 48546 333 58032 60007=
41535 22697 23102 10180 20039 48495 82500 333 56900 58021 60007 82635=
41536 22597 52303 10220 20032 39047 48532 85200 333 56900 58028 60007 85830=
41560 22697 41303 10160 20109 38282 48504 83430 333 59018 60007=
41573 22697 31306 10115 20022 37992 48513 83400 333 58039 60007=
41598 22997 02304 10260 20111 40143 333 58034 60007=
41600 22996 00000 10255 20115 40138 333 58035 60007=
41620 32697 23605 10195 21036 48517 82500 333 56900 58040 60007 82640=
41624 22997 02302 10270 20136 40145 333 58036 60007=
41640 21996 02704 10280 20104 40143 70500 333 58041 60007=
41675 21696 13104 10270 20101 40151 70500 81100 333 56900 58038 60007 81840=
41678 22996 00000 10300 20111 40125 333 58050 60007=
41685 32997 00000 10210 21004 38917 48510 333 58040=
41697 22997 02304 10272 20125 40149 333 58050 60007=
41700 21996 00000 10265 20129 40140 70500 333 58040 60007=
41710 22997 02308 10280 20015 40045 333 59010 60007=
41712 22696 30504 10250 20005 48508 83500 333 56900 58006 60007 83640=
41715 21696 40502 10275 20132 40149 70500 82530 333 56990 58045 60007 82635 82360=
41718 21996 00514 10280 20128 40143 70500 333 58042 60007=
41725 21996 40504 10260 20164 40136 70500 84020 333 56090 58080 60007 84460=
41739 22997 01810 10260 21033 39029 48506 333 58014 60007=
41744 22696 41304 10220 20015 48493 84500 333 56900 59002 60007 84640=
41746 22996 20902 10285 20194 40129 80001 333 56009 58038 60007 82070=
41749 22996 23106 10320 20141 40137 80001 333 56009 58043 60007 82070=
41756 21996 22702 10260 20164 40142 70504 82001 333 56009 58036 60007 82070=
41759 21696 40905 10260 20199 40141 70411 84500 333 56900 58047 60007 84640=
41764 21996 00406 10315 20109 30071 40119 70400 333 58034 60007=
41768 22996 20504 10355 20084 40111 82030 333 56090 58041 60007 82360=
41780 22696 32308 10320 20162 30102 40128 333 56900 58039 60007 83630=
41785 22597 30504 10325 20125 40122 83600 333 56800 58030 60007 83730=
41859 32956 02303 10321 20150 30056 40093 333 58009 70000=
41883 32956 20202 10334 20110 30074 40094 333 58006 70000=
41891 31440 32704 10310 20180 30056 40094 70522 81530 333 56990 58004 70000 =
41923 31950 02105 10336 20100 30082 40091 70500 333 58010 70000=
41936 31950 02503 10350 20170 30085 40092 70500 333 58002 70000=
41943 32950 20000 10325 20190 30087 40094 82030 333 56090 58007 70000 82362=
41950 32456 32102 10342 20170 30091 40094 83430 333 56490 58007 70020 82616=
41978 31940 31804 10300 20230 30103 40110 70500 80030 333 56090 58007 70000 =
41992 31935 02405 10308 20230 30103 40106 70500 333 58003 41997 01406 10130 =
42027 32596 41401 10116 20031 38450 48536 82210 333 58031=
42044 22596 60000 10104 20025 38314 48552 83810 333 58038 6990/=
42045 32696 63202 10154 20010 38387 48515 83420 333 58033=
42056 32696 12302 10252 20110 39706 81100 333 58032=
42071 32996 09903 10256 20102 40141 333 58035=
42081 32596 62705 10196 20073 38938 48525 83520 333 58020 83630 86458=
42083 21496 70000 10130 20019 37997 4//// 72962 87700 333 58027 6001/=
42097 21091 99257 70837 46/// ///// 1//// 90900 22200 00239 10603 20603 7001=
42099 31596 30905 10284 20072 40125 70511 81230 333 58036 81830 83360=
42101 32996 53203 10288 20155 40125 80001 333 58038 85070=
42103 31995 62903 10284 20094 40126 70521 83031 333 58037 83360 83080=
42111 31595 62303 10280 20112 39414 40090 70522 82131 333 58019 82830 83360 86070=
42123 32996 00901 10300 20082 40139 333 58042=
42131 32996 23203 10298 20143 40130 80001 333 58042=
42139 31996 20502 10298 20121 40110 70511 80001 333 58032=
42147 32297 79902 10180 20022 37780 85530 333 58015 85604 87348=
42165 31995 00502 10320 20100 40114 70500 333 58043=
42170 32696 43202 10326 20058 40114 84500 333 58037 84640=
42181 31996 23208 10312 20186 40116 70511 82030 333 58039 82360=
42182 31996 10502 10314 20090 40107 70511 80001 333 58042 81070=
42189 31595 40901 10318 20132 40099 70521 82531 333 58012 82625 83360 84070=
42220 21495 83202 10192 20151 40130 76062 8672/ 333 58016 6994/ 81715 85620 88458=
42273 31595 52702 10340 20132 40094 70522 83530 333 59003 83625 85360=
42299 31395 70000 10142 20089 38182 48485 70522 86630 333 58006 82709 85616=
42309 31596 60709 10260 20147 40119 70522 83430 333 58022=
42314 21596 50517 10224 20126 40123 70522 83530 333 58024 6990/ 83620 85360=
42328 32996 00504 10306 20057 40105 333 58044=
42339 31595 32301 10302 20097 40111 70500 82530 333 58030 82630 83360=
42343 31596 60504 10310 20059 40096 70522 84530 333 58026=
42348 31695 43603 10316 20003 40101 70511 81530 333 58029 81635 83360=
42361 31996 10000 10324 20122 40094 70500 80001 333 58026 81075=
42369 31996 41404 10344 20129 40095 70500 80001 333 59001 84070=
42379 31995 10502 10332 20074 40084 70500 81030 333 58003 81360=
42404 32996 00502 10294 20168 40092 333 58009=
42410 31596 22301 10312 20162 40092 70500 82300 333 59003 82620 81925=
42415 31996 03604 10282 20151 40103 70500 333 58009=
42435 31695 20000 10334 20074 40124 70500 82500 333 58035 82635=
42452 32996 00502 10328 20002 40097 333 58026=
42463 32996 03206 10340 20113 40109 333 58021=
42475 42165 31995 00502 10320 20100 40114 70500 333 42309 31596 60709 10260 =
42492 32996 02904 10354 20099 40083 333 58001=
42498 32996 00000 10356 20197 40095 333 59001=
42500 32996 03202 10314 20116 40104 333 58016=
42503 32996 03202 10346 20127 40090 333 58000=
42516 31496 53202 10202 20105 38395 48488 70522 85400 333 58006=
42539 32997 02704 10350 20074 40106 333 58020=
42559 32996 02001 10336 20038 40077 333 58024=
42567 32996 02712 10370 20082 40068 333 58003=
42571 32596 11402 10352 20023 40066 81100 333 59005 81830=
42587 31595 30000 10348 20183 40079 70500 81530 333 59007 81620 83360=
42591 32996 03204 10344 20109 40089 333 59003=
42619 32496 51803 10312 20218 40096 85400 333 56500 58005 83618 83825=
42623 31496 52010 10260 20159 39233 40082 70522 83530 333 58006 83618 84360=
42631 32997 02706 10320 20192 40119 333 58012=
42634 32596 20000 10330 20072 40114 82500 333 58024 82620=
42647 32996 02504 10352 20101 40111 333 58020=
42667 32996 03214 10340 20040 39518 40082 333 58026=
42671 32997 02704 10344 20068 39483 40073 333 58021=
42675 31996 02705 10334 20137 40079 70500 333 58015=
42693 32596 12503 10316 20158 39427 40085 81500 333 59006 81625=
42701 32996 12305 10322 20146 39375 40075 81030 333 59001 81360=
42706 31496 22302 10362 20138 40081 70500 82400 333 59004 81618=
42708 32997 22902 10358 20137 40090 82400 333 56500 59001=
42724 31596 31401 10324 20225 40102 70520 83500 333 58013 83620=
42730 32996 03204 10266 20209 40138 222// 20000 333 58019=
42731 32996 02905 10260 20205 40132 222// 20000 333 58018=
42737 32996 02504 10326 20088 40118 333 58027=
42748 32996 02703 10344 20119 40108 333 58021=
42754 32996 02902 10326 20070 39463 40079 333 59024=
42763 32997 02302 10354 20009 39758 40083 333 58030=
42779 32596 12303 10308 20193 39409 40082 81100 333 58001 81825=
42798 01996 02305 10354 20158 40077 70500 333 59001=
42807 32996 02003 10344 20157 40091 333 58004=
42809 31995 01402 10350 20204 40090 70511 333 58002=
42811 32996 000// 10334 20259 40094 333 59001=
42812 32596 30000 10320 20233 40098 83500 333 58001=
42830 32996 02711 10288 20182 40128 333 58016=
42838 31996 00509 10318 20117 40116 70400 333 58023=
42840 32996 03205 10322 20205 40123 333 58025=
42867 31596 42004 10340 20230 40092 70500 84800 333 58031 82620=
42871 31996 00508 10334 20164 4//// 70500 333 58///=
42874 42779 32596 12303 10308 20193 39409 40082 81100 333 58001 42634 32596 =
42883 32996 00000 10330 20208 40099 333 58008=
42886 32996 02304 10330 20182 40099 333 58002=
42891 32996 00000 10330 20241 40090 333 59002=
42895 32996 21403 10330 20194 40090 80001 333 58004 82075=
42901 32996 02002 10330 20242 40094 333 58005=
42909 32997 02705 10280 20243 40123 222// 20000 333 58019=
42921 32996 02904 10334 20034 40096 333 58025=
42931 32996 00502 10364 20089 40068 333 58014=
42933 32997 00502 10364 20086 40076 333 58029=
42937 32996 02902 10354 20186 40121 333 58057=
42939 32996 10000 10312 20197 40109 81030 333 58043=
42946 32997 00000 10350 20219 40081 333 58026=
42971 31996 01806 10360 20206 40093 70510 333 58006=
42973 32996 11801 10350 20208 40100 81030 333 58010=
42976 31995 01606 10300 20246 40104 70500 333 58008=
43003 32996 02910 10296 20206 40120 333 58024=
43014 32996 02508 10352 20105 39453 40070 333 58021=
43029 32996 02303 10362 20194 40082 333 58002=
43041 32596 72302 10336 20149 39496 40089 83570 333 58021 83625 87458=
43049 32996 31812 10306 20264 40101 81031 333 58008 81360=
43053 32596 62004 10316 20229 40107 83531 222// 20701 333 58010=
43063 32997 22703 10360 21004 39483 40079 80001 333 58029 82070=
43081 32597 30000 10366 20179 39657 40067 83800 333 58019=
43086 32597 12003 10350 20152 39910 40082 81500 333 58009=
43105 32597 32308 10318 20244 30100 40107 83501 333 58016=
43109 32997 03203 10276 20229 40136 222// 20000 333 58020=
43110 32997 03203 10300 20210 40080 333 58017=
43111 32997 02903 10304 20064 38644 48530 333 58021=
43117 32597 11402 10382 20105 40065 81500 333 58019=
43121 32597 22002 10380 20167 39573 40061 82400 333 58015=
43128 32597 31404 10360 20150 39489 40069 83800 333 58007 82620 83825=
43147 32997 02302 10350 20201 30094 40114 333 58012=
43149 32496 41808 10322 20221 30107 40110 81530 333 56490 58017 81618 83359=
43150 32596 22308 10330 20245 30045 40118 82400 333 58013 81620=
43157 32997 02302 10360 20075 39469 40075 333 58019=
43181 32597 31802 10344 20203 30077 40104 83500 333 58010=
43185 32597 11404 10328 20219 30110 40113 81500 333 58017 81620=
43187 32597 31603 10314 20213 30110 40120 83500 333 58017=
43189 32597 31403 10336 20235 30106 40115 83500 333 58018=
43192 31996 02906 10316 20219 40110 70500 333 58009=
43198 32497 20903 10350 20074 39280 40069 82500 333 58016 82615=
43201 32497 10000 10350 20144 39390 40081 81500 333 58012 81615=
43213 32597 31805 10392 20117 39764 40065 83800 333 58010=
43220 32597 21605 10322 20238 30100 40107 82500 333 58012=
43221 32997 01405 10338 20207 30095 40108 333 58013=
43225 32997 13203 10346 20217 30115 40120 81030 333 58012=
43233 32497 11603 10350 20042 39298 40073 81100 333 58014=
43237 32597 29902 10396 20120 39690 40062 82800 333 58010 81620=
43243 32997 01405 10330 20222 30083 40107 333 58010=
43245 32997 01405 10348 20220 30077 40103 333 58014=
43275 32596 11808 10368 20161 39980 40095 81500 333 58015=
43279 32597 11410 10338 20218 30095 40112 81500 333 58010 81615=
43284 32496 12710 10334 20199 39986 40099 81500 333 58009 81615=
43295 32597 39902 10340 20100 39090 48523 82501 333 58005 82620=
43311 32597 20000 10324 20241 40109 82500 333 58010 82620=
43314 32997 20000 10350 20252 40103 80002 333 58007=
43315 32997 22310 10354 20247 40098 80001 333 58006=
43321 31496 20904 10352 20146 39658 40087 70500 81501 333 58012 81615=
43329 32997 01102 10324 20238 30093 40106 333 58010=
43333 31596 30906 10316 20242 40100 70510 82101 333 58004 82820=
43344 32497 20506 10370 20160 39986 40082 81501 333 58003 81618=
43346 32597 21106 10326 20237 30100 40108 81401 333 58013 81620=
43347 32997 11102 10322 20248 30092 40102 80002 333 58008=
43348 32597 12004 10328 20252 30097 40104 81400 333 58005=
43353 31496 42910 10328 20246 40103 70511 82830 333 56790 58011 82816=
43361 32597 21403 10352 20225 30101 40107 81501 333 58009=
43363 32597 10202 10324 20241 30095 40107 81500 333 58009=
43368 42559 32996 02001 10336 20038 40077 333 58024=
43369 32597 20503 10328 20236 40108 82100 333 58011 82820=
43371 32597 12304 10338 20238 30029 40100 81100 333 58011 81820=
43377 32597 30504 10332 20266 30057 40097 83400 333 58004=
43404 22470 5//// 10328 20216 30099 40111 84206 333 58011 60007 84818 85280=
43413 22470 23603 10336 20236 30096 40100 82200 333 58008 60007 82818=
43415 22470 40501 10349 20191 39998 40106 84100 333 58007 60007 84818=
43418 22470 20902 10322 20248 30060 40101 81102 333 58004 60007 81818=
43421 22470 30501 10354 20202 39994 40096 83100 333 58004 60007 83818=
43422 22470 71102 10346 20214 39958 40088 872// 333 58002 60007 87818=
43424 22470 32703 10323 20256 30092 40094 83200 333 58005 60007 83818=
43436 22470 50503 10299 20253 30104 40107 82101 333 58010 60007 82818 85080=
43441 22470 62702 10362 20182 39954 40082 85306 333 58007 60007 84818 81920=
43444 22470 70503 10310 20195 39563 40089 85206 333 58006 60007 85818 83280=
43450 22470 42705 10318 20244 30086 40098 83901 333 58003 60007 82818 81920=
43466 22470 52703 10326 20234 30084 40097 84201 333 58008 60007 84818=
43467 22468 33109 10325 20242 30093 40099 81131 333 58006 60007 81816=
43473 22470 60902 10197 20141 38137 48498 86200 333 58004 60007 82708 86810=
43476 22470 31303 10242 20174 38775 48523 82101 333 58004 60007 82810=
43479 21470 53201 10262 20213 39264 72582 84202 333 58007 60027 84816=
43486 21420 70504 10251 20224 30006 40105 78082 8596/ 333 58011 60017 84815 82918 87458=
43495 21470 61803 10295 20257 30078 40094 72598 85930 333 58010 60087 85818 81920=
43497 22470 21402 10315 20250 30083 40101 82200 333 58010 60007 82818=
43533 42460 20507 10322 20248 30105 40107 82200 333 58010 82818=
43555 42462 40912 10322 20248 30100 40102 83201 333 58008 83818=
43577 41465 40905 10306 20260 30098 40100 70281 82942 333 58008 82818 81919=
43599 42460 79902 10282 20262 30110 40112 83962 333 20250 59002 82817 81918 87076 555 10543=
44404 42360 40903 10190 20039 38142 48476 82250 333 58025=
44416 42660 32612 10297 20074 39338 40090 81102 333 58014=
44424 42458 72304 10171 21057 37663 47075 84458 333 58032=
44434 42560 21404 10272 20135 39193 48510 82200 333 58010=
44438 42557 22007 10326 20138 39969 40095 82100 333 58001=
44449 42557 22606 10328 20136 39936 40090 82200 333 59011=
44454 42560 33111 10261 20111 38659 48495 83800 333 58012=
44462 42462 22710 10212 20036 38262 48476 82200 333 58011=
44474 41020 70000 10180 20078 38260 48488 70544 87500 333 58006=
44477 41415 22603 10224 20124 38810 48519 70544 82200 333 58007=
44478 42960 02604 10314 20202 30013 40095 8//// 333 58010=
45007 42474 62006 10273 20211 30086 40095 55014 85530 333 59016 81610 84625=
45011 45364 71406 10248 20226 40094 57015 333 59017=
45032 36/// /2104 10276 20204 30077 40093 54000=
45035 36/// /1704 10262 20206 30050 40091 57001=
45039 36/// /2205 10263 20214 30078 40092 54000=
45044 36/// /1503 10251 20231 30005 40096 54000=
47100 36970 62722 10050 20000 39145 40043 53025=
47101 32969 /2706 10091 21010 30003 40095 52038=
47104 32670 62703 10134 21021 39935 40028 52029 82501=
47105 36965 72010 10136 21001 30001 40032 52027=
47106 36970 93609 10131 21002 39984 40031 52026=
47108 32962 62907 10057 21026 30016 40121 52038 80001=
47112 31660 63412 10054 21006 30042 40127 52028 70522 82501=
47114 36662 72509 10081 20016 39918 40097 52030=
47115 32670 72309 10131 20091 39764 40024 52024 82501=
47119 32661 62709 10063 20006 30082 40125 52027 81501=
47121 36770 62508 10091 20019 39796 40082 52019=
47127 36562 92509 10066 20008 39975 40117 52031=
47129 32971 73410 10044 21004 30109 40141 52018=
47130 369// 92308 10133 20015 39972 40031 52022=
47131 31559 72704 10066 20004 30058 40128 52029 70511 82502=
47133 32668 83207 10084 20019 30044 40128 52028 8151/=
47135 36570 92713 10089 20013 39806 40097 52019=
47136 32670 62908 10098 20003 39918 40086 52022 85502=
47138 32670 72511 10140 20045 30052 40057 52020 81502=
47140 36559 93215 10053 20017 30112 40141 50023=
47143 32670 72912 10129 20029 30016 40080 52024 81502=
47146 32660 72710 10052 20028 30064 40140 52029 83502=
47152 32970 63407 10147 20052 39961 40059 52034 80001=
47155 32970 62704 10135 20032 30032 40077 52036 80002=
47156 32663 80207 10065 20020 30053 40142 52026 8352/=
47159 32970 63205 10159 20042 39979 40061 52029 80002=
47162 36968 62907 10130 20067 30044 40082 52030=
47165 31458 80222 10061 20023 30093 40140 52012 71022 8752/=
47168 32670 73214 10106 20033 30023 40101 52026 82502=
47170 46966 93211 10080 20026 30074 40117 50010=
47184 32465 82908 10099 20056 30123 40148 52012 8452/=
47185 36467 90220 10088 20053 30038 40125 52022=
47189 36568 81103 10142 20120 30043 40101 52021 8352/=
47192 36970 73604 10133 20025 30051 40087 52035=
47401 41/30 80818 11020 21034 30003 40018 58031 78588 882//=
47402 47/56 /0916 11011 21018 30014 40025 56044 72470 555 19029=
47404 47/70 /1311 10036 21008 39960 49972 56030 76760 555 19003=
47405 47/62 /1006 11009 21019 39998 40018 58044 70070 555 19002=
47406 47/70 /1212 10048 21006 39941 49972 56023 76760=
47407 41/70 81414 10029 21009 39819 49990 56023 78022 8527/=
47409 41/70 81902 11003 21030 39967 40021 58034 78322 887//=
47411 47/56 /1204 10059 20039 39918 49950 56036 76160=
47412 41460 81609 10063 20040 39930 49962 56029 78022 882//=
47413 47/50 /3603 10036 20023 39911 49974 58024 76160 555 19033=
47417 46/// /2204 11003 21010 39977 40032 57038=
47418 41/58 80417 11001 21008 39965 40015 56063 76682 887//=
47420 47/27 /1018 10003 21002 39997 40031 58059 76776=
47421 47/57 /1411 10027 20017 39888 49931 58057 76766=
47423 46/// /0809 10027 20026 39897 49958 58049=
47424 47/41 /2204 10041 20032 39961 49971 56044 76160=
47426 47/70 /0806 10072 20033 39926 49973 56030 76160=
47428 47/63 /3302 10062 20037 39910 49925 58054 72360=
47430 41/58 81111 10049 20037 39890 49943 58048 78022 882//=
47433 47/65 /1110 10031 20018 39720 49948 58042 76760 555 19093=
47435 47/60 /0904 11002 21013 39991 40013 58042 76776=
47440 47/70 /3006 10001 21016 39980 40023 58052 76776=
47512 47/60 /1703 10105 20088 39940 49986 56030 70060=
47520 47/56 /3404 10054 20051 39874 49998 56024 71060=
47570 45/70 /0102 10115 20080 39765 40017 56011=
47574 47/64 /2017 10112 20108 39854 49934 56026 76166=
47575 41/56 82803 10065 20052 39944 49949 56038 76166 8752/=
47576 47/47 /1102 10052 20049 39946 49952 56047 76160=
47581 46/// /0604 10064 20057 39917 49951 56043=
47582 41/30 81409 10101 20100 39952 49978 56016 78066 882//=
47584 41/30 81709 10096 20096 39793 49978 57032 76166 885//=
47585 45/70 /1602 10130 20087 39904 49959 57036=
47587 47/70 /2417 10167 20094 39987 49993 55003 76160=
47588 46/// /1902 10115 20062 39813 49995 56026=
47590 42/60 73403 10122 20085 39938 49990 56023 872//=
47592 45/60 /1911 10123 20110 39941 49992 56024=
47595 46/// /2106 10196 20098 39905 49985 56019=
47597 45/70 /1912 10169 20103 39593 40001 56012=
47598 45/69 /1608 10165 20125 30007 40013 55012=
47600 47/56 /2415 10151 20128 30013 40021 53034 76160=
47602 47/50 /2714 10135 20124 30007 40016 53023 72360=
47604 42/65 71906 10167 20110 39995 40002 53008 81272=
47605 42/70 72518 10175 20118 39987 40026 53022 8687/=
47606 45/70 /2504 10184 20115 30006 40021 53014=
47607 46/// /1814 10187 20115 30000 40020 52008=
47610 45/70 /2509 10193 20089 39525 49998 55000=
47612 45/62 /1503 10207 20102 39976 49993 53002=
47615 45/70 /1913 10188 20126 39848 40010 55012=
47616 46/// /2704 10190 20134 30017 40037 53007=
47617 47/70 /1203 10136 20113 39414 40059 55003 72360=
47618 45/70 /1615 10165 20090 39337 40027 56003=
47620 45/70 /2807 10123 20102 39188 40055 55001=
47622 45/70 /2408 10140 20075 38902 48388 55004=
47624 45/70 /1303 10201 20100 39878 40009 56012=
47626 45/70 /1605 10195 20125 39973 40010 55013=
47629 45/70 /2212 10182 20127 39984 40020 55012=
47631 45/70 /1211 10188 20130 30030 40044 53001=
47632 46/// /3202 10149 20136 30042 40063 56007=
47636 42/65 81507 10172 20141 39997 40063 55004 8687/=
47637 47/70 /2808 10131 20122 39464 40074 56008 72360=
47638 45/70 /3105 10178 20100 39701 40024 55010=
47639 46/// ///// 11045 21045 36342=
47640 45/70 /3010 10121 20102 39058 48390 55014=
47641 45/70 /2303 10184 20100 39740 40008 55009=
47648 45/62 /2021 10169 20151 30002 40035 56016=
47649 45/70 /0404 10185 20132 39867 40053 53006=
47651 46/// /0106 10174 20127 30038 40060 53002=
47653 45/65 /1907 10168 20158 30053 40062 56005=
47654 47/61 /2407 10173 20158 30012 40068 56014 76160=
47655 45/69 /2420 10181 20163 30005 40064 56013=
47656 46/// /2208 10168 20155 30043 40062 56014=
47657 47/67 /2511 10172 20154 30027 40053 56019 72360=
47662 42/75 42015 10184 20139 39996 40024 55016 81831=
47663 47/70 /3403 10180 20149 30037 40057 56006 70060=
47666 45/63 /2423 10181 20159 39996 40058 56014=
47668 47/50 /2415 10170 20148 39958 40038 56021 76166=
47670 47/70 /2117 10182 20139 39981 40031 56022 72360=
47672 47/67 /2420 10189 20146 30045 40053 58020 72360=
47674 47/61 /2024 10174 20154 30032 40048 58019 70060=
47675 47/64 /2222 10184 20155 39973 40061 56015 72360=
47677 45/70 /2411 10190 20153 30022 40069 56012=
47678 45/64 /2313 10180 20155 39909 40087 58011=
47682 45/70 /2223 10184 20141 30030 40037 56019=
47684 45/66 /0204 10162 20137 39995 40062 53001=
47690 45/70 /2105 10109 20052 38593 48383 56007=
47740 45/62 /2710 10152 20129 30003 40036 52023=
47741 42/60 72619 10149 20122 30025 40052 53026 82272=
47742 45/64 /2512 10158 20126 30046 40050 53027=
47744 45/61 /2712 10159 20127 30036 40046 53027=
47746 42/65 83411 10165 20134 30029 40048 53026 882//=
47747 45/65 /3307 10183 20148 30032 40039 53018=
47750 45/70 /2605 10185 20154 30035 40040 53005=
47754 45/70 /2505 10174 20110 30064 40068 53028=
47755 45/62 /2319 10149 20124 30042 40067 53025=
47756 45/70 /0604 10173 20155 39871 40043 53003=
47759 46/// /0603 10186 20135 39989 40050 55000=
47761 46/// /0803 10167 20134 39945 40054 53001=
47762 42560 72610 10150 20108 30054 40077 53028 82832=
47765 42/65 72106 10196 20153 39986 40049 53010 82132=
47766 45/67 /2503 10197 20167 30043 40049 53010=
47767 45/61 /1903 10170 20133 30039 40043 53009=
47768 46/// /1505 10201 20151 30031 40039 53006=
47769 45/64 /1803 10174 20161 39999 40045 58002=
47770 46/// /2706 10180 20167 30015 40051 55000=
47772 42/75 70103 10188 20157 39952 40048 53001 872//=
47776 47/61 /1503 10181 20171 39963 40045 53010 72360=
47777 46/// /1811 10203 20177 30026 40047 53002=
47778 47/56 /2307 10178 20175 39983 40064 56008 71060=
47780 46/// /3606 10197 20134 39927 40047 53002=
47784 45/70 /2808 10159 20113 30049 40072 53032=
47800 45/69 /3019 10135 20084 30053 40058 50010=
47805 45/62 /2506 10133 20103 30025 40095 51020=
47807 42/70 72610 10154 20098 30066 40084 53029 81232=
47809 45/70 /2813 10153 20109 30036 40081 53035=
47812 45/70 /3009 10142 20102 30091 40098 51023=
47813 46/// /2515 10162 20107 30048 40087 53030=
47814 45/65 /2908 10197 20145 39973 40071 53023=
47815 42/70 70706 10190 20161 30043 40059 53026 81132=
47817 42/65 82906 10148 20108 30056 40099 53019 8622/=
47818 47/08 /3010 10107 20107 39311 40095 53013 73230=
47819 42/65 72208 10166 20130 30039 40085 53021 82831=
47822 45/69 /2410 10229 20147 30024 40048 53008=
47823 47/69 /2707 10163 20129 30049 40099 53018 76160=
47824 45/62 /3004 10174 20141 39911 40083 53020=
47827 41/60 72910 10189 20154 30051 40088 53014 72582 8627/=
47829 45/60 /2703 10190 20155 39895 40075 53012=
47830 42/60 72410 10218 20159 30042 40059 53012 8783/=
47831 45/62 /3309 10183 20150 30053 40090 53011=
47835 47/59 /2611 10215 20163 30047 40064 53008 71000=
47836 47/58 /3110 10207 20185 30036 40080 53012 71000=
47837 47/56 /2812 10199 20175 30039 40083 53010 71000=
47838 45/67 /2710 10159 20123 30079 40097 53017=
47843 47/70 /3312 10135 20101 30060 40092 50007 76160=
47887 42/65 72904 10196 20168 30011 40051 53016 82231=
47890 45/63 /2502 10188 20139 30036 40042 53006=
47891 42/70 60602 10197 20139 30030 40042 53006 81132=
47892 45/65 /2206 10222 20184 30033 40050 53007=
47893 46/// /2802 10185 20170 30051 40057 53003=
47895 46/// /3606 10177 20159 30035 40042 53010=
47897 47/50 /0901 10198 20192 30040 40053 53003 71000=
47898 47/56 /2511 10208 20200 30015 40054 53004 71000=
47899 47/04 /2914 10176 20176 39837 40053 53005 76163=
47909 42/65 72007 10252 20198 30090 40099 53007 872//=
47912 45/63 /1713 10261 20240 30054 40095 56001=
47917 45/66 /2012 10261 20232 30090 40103 53001=
47918 42470 31911 10263 20236 30091 40108 55000 83200=
47927 42/65 22011 10255 20230 30066 40113 55001 82100=
47929 45/68 /2111 10248 20225 30104 40111 52004=
47936 42/65 12017 10243 20218 30058 40115 53004 81100=
47940 45/70 /2208 10250 20211 30104 40112 52005=
47942 45/61 /2213 10237 20212 30074 40108 53002=
47945 45/67 /2109 10227 20204 30108 40132 53006=
47971 42/70 13203 10205 20163 30125 40135 53008 81100=
47991 46/// /0414 10220 20180 30107 40117 51013=
48001 32450 53201 10240 20136 40118 85700 333 56700 58019=
48004 31456 43201 10303 20185 70511 84900 333 56500=
48008 32558 63601 10305 20169 40096 83870 333 56660 59007=
48010 32558 30901 10315 20200 40081 82830 333 56660 59006=
48018 32961 40403 10310 20237 40087 70310 82240 333 56550 59003=
48019 32960 01401 10318 20140 40086 80000 333 56000 59007=
48020 32458 23601 10334 20172 82800 333 56500=
48025 31456 51401 10350 20158 40086 56590 58006 70522 83840 999=
48031 31240 21401 10250 20024 70511 82500 333 56900=
48033 32563 32701 10360 20132 40072 70111 83500 333 56900 59023=
48035 31550 63205 10300 20069 40049 70522 84960 333 56790 58003=
48037 32560 50401 10357 20177 40080 70222 85800 333 56500 58010=
48042 32557 53201 10362 20156 40083 83250 333 56990 58000=
48045 32559 52302 10280 20073 85800 333 56500=
48048 32558 20401 10375 20063 40079 82800 333 56900 58007=
48053 32556 43602 10360 20156 40080 83506 333 56509 58001=
48057 32458 22202 10280 20043 81800 333 56900=
48062 32457 32712 10305 20239 40105 82230 333 56690 58000=
48064 32960 00901 10370 20224 40065 333 59001=
48071 32960 03208 10294 20215 40126 333 58014=
48074 32459 42301 10366 20190 40071 83850 333 56990 59004=
48075 31960 02201 10350 20047 40056 70500 333 58000=
48077 32958 00000 10378 20159 40058 333 58000=
48078 32958 11401 10375 20154 40074 80001 333 56009 59003=
48080 32962 02706 10335 20270 40104 333 58010=
48087 32960 03601 10380 20140 333=
48093 32958 03202 10386 20122 333=
48094 32959 03203 10355 20180 40099 333 58008=
48095 32960 00401 10360 20214 333=
48097 32557 20401 10375 20144 40099 82500 333 56900 58014=
48099 32457 23205 10381 20187 81440 333 56900=
48103 32958 02202 10350 20182 40078 333 59010=
48107 32350 23203 10378 20240 40091 82900 333 56700 58005=
48108 32496 52309 10350 20219 40101 83306 333 56709 58011=
48109 32997 00402 10325 20244 40113 333 58008=
48110 32596 63208 10350 20250 40093 82306 333 56909 58003=
48112 32598 62703 10340 20240 40078 82216 333 56699 58000=
48300 31950 00000 10370 20111 39752 40049 57039 70500 333 58002=
48303 31956 01107 10350 20161 39626 40049 57027 70500 333 58015=
48310 31950 02003 10370 20136 39607 40040 57034 70500 333 59002=
48315 31550 10000 10379 20171 39795 40052 56032 70500 81100 333 58000=
48325 31558 10000 10370 20102 39830 40062 57032 70400 81200 333 59005=
48327 31657 11203 10370 20124 39716 40049 57038 70500 81100 333 59001=
48328 32960 00000 10390 20130 39785 40048 57035 333 59002=
48329 31920 00000 10376 20102 39722 40045 57029 70500 333 58002=
48330 31956 62302 10390 20154 39866 40043 57034 70522 80006 333 59005=
48331 32960 01403 10383 20138 39824 40043 57035 333 59005=
48351 31956 01505 10386 20157 39979 40049 57041 70500 333 59012=
48352 31950 02803 10377 20152 39851 40042 57028 70500 333 59011=
48353 31640 22303 10384 20135 39763 40038 57030 70500 82100 333 59009=
48354 31650 12303 10388 20141 39851 40045 56030 70500 81100 333 59008=
48356 31558 23003 10371 20170 39854 40041 57029 70500 82200 333 59014=
48357 31558 30602 10362 20216 39887 40049 56028 70500 81105 333 59033=
48375 32660 12308 10365 20138 39838 40054 57027 81500 333 59026=
48376 31956 22809 10382 20099 39924 40062 57031 70500 80005 333 58001=
48377 31956 01204 10380 20166 39896 40053 57032 70500 333 59001=
48378 31956 21803 10382 20179 30005 40055 57040 70500 80005 333 59012=
48379 31556 20000 10383 20216 39912 40039 57036 70500 82200 333 59003=
48380 31640 11506 10383 20172 39965 40054 57037 70500 81100 333 59011=
48381 31558 61404 10378 20184 39837 40046 56030 70522 84805 333 59007=
48383 32562 22702 10381 20182 39886 40038 57029 82101 333 59010=
48400 31958 20903 10380 20206 30021 40060 56036 70500 81035 333 59004=
48403 31556 32604 10389 20177 39847 40047 57036 70500 82805 333 59003=
48405 31558 43003 10372 20197 39885 40041 56031 70500 82206 333 59005=
48407 31659 32402 10390 20195 39917 40051 57031 70511 82105 333 59009=
48413 32560 32303 10379 20199 39975 40052 57034 82205 333 59006=
48416 31958 00000 10380 20183 39914 40056 57030 70500 333 59002=
48418 31559 60000 10380 20221 30000 40057 57037 70592 84806 333 59008=
48421 31540 20203 10382 20160 39963 40072 57034 70500 82200 333 58001=
48425 31957 20000 10376 20235 30052 40062 57035 70500 80005 333 59007=
48426 32560 40000 10367 20227 30047 40064 56033 81105 333 59003=
48430 31559 42103 10376 20226 30052 40059 56034 70500 82205 333 59004=
48431 32562 43606 10390 20176 39844 40047 57032 83305 333 59007=
48432 31557 21703 10380 20183 39889 40050 57032 70500 82205 333 59006=
48450 31557 22104 10394 20174 30025 40057 57035 70500 82100 333 59003=
48454 32560 41706 10334 20251 30069 40075 57028 82206 333 59002=
48455 32960 01506 10340 20264 30066 40071 57026 333 59003=
48456 21459 72121 10281 20237 30078 40092 57005 79522 83977 333 58017 69905=
48457 31457 61815 10301 20254 30060 40077 57027 71022 82906 333 59003=
48459 31540 42706 10340 20253 30066 40069 57024 70500 82106 333 59023=
48460 32560 21207 10324 20269 30042 40073 57028 81903 333 59005=
48461 31559 22304 10321 20250 30009 40077 55027 71000 82903 333 59008=
48462 31557 42003 10387 20239 30002 40056 56027 70500 82205 333 59021=
48463 32560 22311 10315 20251 39991 40083 57026 82205 333 59006=
48465 32961 21613 10324 20270 30069 40073 56027 80005 333 59004=
48475 31957 21607 10323 20251 30067 40074 57027 71000 80005 333 59008=
48477 31558 61710 10324 20247 30060 40084 57025 70522 82106 333 59017=
48478 31558 22406 10311 20248 30077 40082 57028 71000 81905 333 59006=
48480 31559 22003 10340 20245 30074 40078 57025 70500 81505 333 59003=
48500 31558 51806 10319 20250 30071 40079 57023 71022 82876 333 59012=
48501 31558 32504 10321 20249 30076 40080 55026 71011 82201 333 58000=
48517 31558 20606 10340 20248 30068 40075 57023 70500 81105 333 59014=
48532 32560 42904 10338 20236 30077 40086 57023 82506 333 58006=
48550 32560 30000 10302 20257 30083 40089 57030 81105 333 59003=
48551 32460 40703 10360 20231 30073 40080 57030 82945 333 58001=
48552 32460 11207 10329 20237 30074 40080 56026 81201 333 59006=
48561 32560 23003 10327 20246 30076 40085 56024 81205 333 58005=
48563 32560 31805 10355 20207 30045 40079 57024 82205 333 58008=
48564 32560 62606 10353 20239 30076 40081 57025 82146 333 58006=
48565 32460 63006 10330 20249 30071 40080 57024 82246 333 58008=
48566 32560 22404 10328 20249 30073 40081 57023 81101 333 58005=
48567 32564 31005 10355 20203 30055 40073 57032 82201 333 58004=
48568 32462 40407 10314 20239 30079 40087 57025 82131 333 58004=
48569 32560 40611 10339 20219 30041 40080 57027 82101 333 58004=
48570 32560 42805 10344 20228 30065 40072 57032 82205 333 58006=
48580 32562 2//// 10325 20255 30072 40078 57025 81101 333 58002=
48583 32562 20607 10315 20228 30081 40087 57026 81101 333 59006=
48601 41560 72807 10327 20196 30070 40074 57030 70522 81132 333 81820 87078=
48615 41466 50308 10310 20239 30075 40081 70122 81232 333 81818 85078=
48620 41461 72503 10297 20258 30071 40080 70592 83933 333 81917 83365 87077=
48647 41458 70205 10271 20246 30067 40092 52005 70522 85948 333 81917 84365 87276=
48657 41468 70805 10308 20246 30060 40078 70522 84332 333 81917 83819 86078=
48665 41458 73302 10259 20241 30078 40088 72998 84978 333 81917 84363 87276=
48698 21435 72406 10282 20237 30061 40079 79598 86978 333 69907 81612 82915 83816=